sensor_id;sensor_type;location;lat;lon;timestamp;P1;durP1;ratioP1;P2;durP2;ratioP2
71108;SDS011;59614;51.012;-1.648;2023-06-05T00:01:36;8.50;;;3.75;;
71108;SDS011;59614;51.012;-1.648;2023-06-05T00:04:02;6.38;;;3.35;;
71108;SDS011;59614;51.012;-1.648;2023-06-05T00:06:28;6.00;;;3.35;;
71108;SDS011;59614;51.012;-1.648;2023-06-05T00:08:54;8.48;;;3.70;;
71108;SDS011;59614;51.012;-1.648;2023-06-05T00:11:19;5.43;;;3.40;;
71108;SDS011;59614;51.012;-1.648;2023-06-05T00:13:45;8.07;;;3.58;;
71108;SDS011;59614;51.012;-1.648;2023-06-05T00:16:11;5.50;;;3.10;;
71108;SDS011;59614;51.012;-1.648;2023-06-05T00:18:36;6.18;;;3.63;;
71108;SDS011;59614;51.012;-1.648;2023-06-05T00:21:02;7.80;;;3.58;;
71108;SDS011;59614;51.012;-1.648;2023-06-05T00:23:28;6.68;;;3.30;;
71108;SDS011;59614;51.012;-1.648;2023-06-05T00:25:54;6.50;;;3.47;;
71108;SDS011;59614;51.012;-1.648;2023-06-05T00:28:20;7.53;;;3.70;;
71108;SDS011;59614;51.012;-1.648;2023-06-05T00:30:45;6.88;;;3.55;;
71108;SDS011;59614;51.012;-1.648;2023-06-05T00:33:10;6.53;;;3.78;;
71108;SDS011;59614;51.012;-1.648;2023-06-05T00:35:36;7.30;;;3.50;;
71108;SDS011;59614;51.012;-1.648;2023-06-05T00:38:02;9.90;;;3.95;;
71108;SDS011;59614;51.012;-1.648;2023-06-05T00:40:27;7.18;;;3.90;;
71108;SDS011;59614;51.012;-1.648;2023-06-05T00:42:53;7.88;;;3.58;;
71108;SDS011;59614;51.012;-1.648;2023-06-05T00:45:18;7.43;;;3.78;;
71108;SDS011;59614;51.012;-1.648;2023-06-05T00:47:43;5.68;;;3.28;;
71108;SDS011;59614;51.012;-1.648;2023-06-05T00:50:09;6.03;;;3.85;;
71108;SDS011;59614;51.012;-1.648;2023-06-05T00:55:03;10.55;;;3.53;;
71108;SDS011;59614;51.012;-1.648;2023-06-05T00:57:28;7.70;;;3.70;;
71108;SDS011;59614;51.012;-1.648;2023-06-05T00:59:54;7.03;;;3.58;;
71108;SDS011;59614;51.012;-1.648;2023-06-05T01:02:20;9.13;;;3.72;;
71108;SDS011;59614;51.012;-1.648;2023-06-05T01:04:46;5.10;;;3.58;;
71108;SDS011;59614;51.012;-1.648;2023-06-05T01:07:12;7.43;;;3.80;;
71108;SDS011;59614;51.012;-1.648;2023-06-05T01:09:39;5.35;;;3.55;;
71108;SDS011;59614;51.012;-1.648;2023-06-05T01:12:26;8.77;;;3.72;;
71108;SDS011;59614;51.012;-1.648;2023-06-05T01:14:58;6.95;;;3.67;;
71108;SDS011;59614;51.012;-1.648;2023-06-05T01:17:27;7.30;;;3.85;;
71108;SDS011;59614;51.012;-1.648;2023-06-05T01:19:54;8.25;;;3.92;;
71108;SDS011;59614;51.012;-1.648;2023-06-05T01:22:20;7.22;;;3.70;;
71108;SDS011;59614;51.012;-1.648;2023-06-05T01:24:45;5.15;;;3.78;;
71108;SDS011;59614;51.012;-1.648;2023-06-05T01:27:16;8.35;;;3.88;;
71108;SDS011;59614;51.012;-1.648;2023-06-05T01:32:35;11.68;;;3.75;;
71108;SDS011;59614;51.012;-1.648;2023-06-05T01:35:06;8.98;;;3.80;;
71108;SDS011;59614;51.012;-1.648;2023-06-05T01:37:34;6.32;;;4.03;;
71108;SDS011;59614;51.012;-1.648;2023-06-05T01:40:06;6.80;;;3.72;;
71108;SDS011;59614;51.012;-1.648;2023-06-05T01:42:35;6.70;;;3.78;;
71108;SDS011;59614;51.012;-1.648;2023-06-05T01:45:02;9.77;;;4.22;;
71108;SDS011;59614;51.012;-1.648;2023-06-05T01:47:29;7.70;;;3.67;;
71108;SDS011;59614;51.012;-1.648;2023-06-05T01:49:54;8.27;;;3.80;;
71108;SDS011;59614;51.012;-1.648;2023-06-05T01:52:20;7.97;;;4.00;;
71108;SDS011;59614;51.012;-1.648;2023-06-05T01:54:45;7.03;;;3.60;;
71108;SDS011;59614;51.012;-1.648;2023-06-05T01:59:40;6.75;;;3.63;;
71108;SDS011;59614;51.012;-1.648;2023-06-05T02:02:05;6.55;;;3.85;;
71108;SDS011;59614;51.012;-1.648;2023-06-05T02:04:31;7.20;;;3.50;;
71108;SDS011;59614;51.012;-1.648;2023-06-05T02:06:57;6.15;;;3.80;;
71108;SDS011;59614;51.012;-1.648;2023-06-05T02:09:28;8.00;;;3.92;;
71108;SDS011;59614;51.012;-1.648;2023-06-05T02:11:54;10.25;;;4.25;;
71108;SDS011;59614;51.012;-1.648;2023-06-05T02:14:19;6.80;;;3.78;;
71108;SDS011;59614;51.012;-1.648;2023-06-05T02:16:45;11.88;;;4.38;;
71108;SDS011;59614;51.012;-1.648;2023-06-05T02:19:13;6.38;;;3.83;;
71108;SDS011;59614;51.012;-1.648;2023-06-05T02:21:39;7.57;;;4.20;;
71108;SDS011;59614;51.012;-1.648;2023-06-05T02:24:04;10.25;;;4.10;;
71108;SDS011;59614;51.012;-1.648;2023-06-05T02:26:30;5.82;;;3.88;;
71108;SDS011;59614;51.012;-1.648;2023-06-05T02:28:55;8.50;;;4.53;;
71108;SDS011;59614;51.012;-1.648;2023-06-05T02:31:22;7.32;;;4.03;;
71108;SDS011;59614;51.012;-1.648;2023-06-05T02:33:54;9.60;;;4.30;;
71108;SDS011;59614;51.012;-1.648;2023-06-05T02:36:20;10.55;;;4.25;;
71108;SDS011;59614;51.012;-1.648;2023-06-05T02:38:47;13.48;;;4.47;;
71108;SDS011;59614;51.012;-1.648;2023-06-05T02:41:17;11.35;;;4.45;;
71108;SDS011;59614;51.012;-1.648;2023-06-05T02:43:43;8.98;;;4.60;;
71108;SDS011;59614;51.012;-1.648;2023-06-05T02:46:09;9.15;;;4.35;;
71108;SDS011;59614;51.012;-1.648;2023-06-05T02:48:35;5.15;;;3.70;;
71108;SDS011;59614;51.012;-1.648;2023-06-05T02:51:00;9.00;;;4.53;;
71108;SDS011;59614;51.012;-1.648;2023-06-05T02:53:25;9.75;;;4.38;;
71108;SDS011;59614;51.012;-1.648;2023-06-05T02:55:51;11.05;;;4.50;;
71108;SDS011;59614;51.012;-1.648;2023-06-05T02:58:18;7.80;;;4.65;;
71108;SDS011;59614;51.012;-1.648;2023-06-05T03:00:44;8.65;;;4.38;;
71108;SDS011;59614;51.012;-1.648;2023-06-05T03:03:10;7.78;;;4.50;;
71108;SDS011;59614;51.012;-1.648;2023-06-05T03:05:37;7.85;;;4.20;;
71108;SDS011;59614;51.012;-1.648;2023-06-05T03:08:03;6.80;;;4.30;;
71108;SDS011;59614;51.012;-1.648;2023-06-05T03:10:29;9.57;;;4.57;;
71108;SDS011;59614;51.012;-1.648;2023-06-05T03:12:54;10.23;;;4.75;;
71108;SDS011;59614;51.012;-1.648;2023-06-05T03:15:20;6.95;;;4.25;;
71108;SDS011;59614;51.012;-1.648;2023-06-05T03:17:46;10.43;;;4.38;;
71108;SDS011;59614;51.012;-1.648;2023-06-05T03:20:12;7.90;;;4.00;;
71108;SDS011;59614;51.012;-1.648;2023-06-05T03:22:38;7.15;;;4.25;;
71108;SDS011;59614;51.012;-1.648;2023-06-05T03:25:04;14.35;;;6.07;;
71108;SDS011;59614;51.012;-1.648;2023-06-05T03:27:30;8.02;;;5.32;;
71108;SDS011;59614;51.012;-1.648;2023-06-05T03:29:56;7.05;;;4.38;;
71108;SDS011;59614;51.012;-1.648;2023-06-05T03:32:23;6.85;;;4.80;;
71108;SDS011;59614;51.012;-1.648;2023-06-05T03:34:49;9.90;;;4.78;;
71108;SDS011;59614;51.012;-1.648;2023-06-05T03:37:15;8.70;;;4.72;;
71108;SDS011;59614;51.012;-1.648;2023-06-05T03:39:40;9.27;;;4.50;;
71108;SDS011;59614;51.012;-1.648;2023-06-05T03:42:06;9.40;;;5.20;;
71108;SDS011;59614;51.012;-1.648;2023-06-05T03:44:36;8.15;;;4.88;;
71108;SDS011;59614;51.012;-1.648;2023-06-05T03:47:02;10.43;;;5.28;;
71108;SDS011;59614;51.012;-1.648;2023-06-05T03:49:28;8.38;;;4.97;;
71108;SDS011;59614;51.012;-1.648;2023-06-05T03:51:54;9.02;;;5.05;;
71108;SDS011;59614;51.012;-1.648;2023-06-05T03:54:25;8.27;;;4.20;;
71108;SDS011;59614;51.012;-1.648;2023-06-05T03:56:52;8.52;;;4.65;;
71108;SDS011;59614;51.012;-1.648;2023-06-05T03:59:20;8.25;;;4.70;;
71108;SDS011;59614;51.012;-1.648;2023-06-05T04:01:47;7.75;;;5.18;;
71108;SDS011;59614;51.012;-1.648;2023-06-05T04:04:13;9.15;;;4.90;;
71108;SDS011;59614;51.012;-1.648;2023-06-05T04:06:39;8.50;;;5.00;;
71108;SDS011;59614;51.012;-1.648;2023-06-05T04:09:05;11.27;;;5.43;;
71108;SDS011;59614;51.012;-1.648;2023-06-05T04:11:36;9.15;;;4.90;;
71108;SDS011;59614;51.012;-1.648;2023-06-05T04:14:03;9.37;;;5.10;;
71108;SDS011;59614;51.012;-1.648;2023-06-05T04:16:28;6.95;;;5.00;;
71108;SDS011;59614;51.012;-1.648;2023-06-05T04:18:54;8.80;;;5.90;;
71108;SDS011;59614;51.012;-1.648;2023-06-05T04:21:20;10.77;;;5.85;;
71108;SDS011;59614;51.012;-1.648;2023-06-05T04:23:45;11.55;;;5.82;;
71108;SDS011;59614;51.012;-1.648;2023-06-05T04:26:11;11.10;;;6.45;;
71108;SDS011;59614;51.012;-1.648;2023-06-05T04:28:36;7.85;;;5.93;;
71108;SDS011;59614;51.012;-1.648;2023-06-05T04:31:02;10.68;;;5.88;;
71108;SDS011;59614;51.012;-1.648;2023-06-05T04:33:27;9.40;;;5.60;;
71108;SDS011;59614;51.012;-1.648;2023-06-05T04:35:52;8.77;;;5.32;;
71108;SDS011;59614;51.012;-1.648;2023-06-05T04:38:18;11.55;;;6.05;;
71108;SDS011;59614;51.012;-1.648;2023-06-05T04:40:46;8.00;;;5.13;;
71108;SDS011;59614;51.012;-1.648;2023-06-05T04:43:13;9.27;;;5.47;;
71108;SDS011;59614;51.012;-1.648;2023-06-05T04:45:39;7.85;;;5.25;;
71108;SDS011;59614;51.012;-1.648;2023-06-05T04:48:06;10.82;;;5.93;;
71108;SDS011;59614;51.012;-1.648;2023-06-05T04:50:32;8.60;;;5.05;;
71108;SDS011;59614;51.012;-1.648;2023-06-05T04:52:58;9.63;;;5.60;;
71108;SDS011;59614;51.012;-1.648;2023-06-05T04:55:24;8.88;;;5.65;;
71108;SDS011;59614;51.012;-1.648;2023-06-05T04:57:49;9.40;;;5.68;;
71108;SDS011;59614;51.012;-1.648;2023-06-05T05:00:16;10.68;;;5.43;;
71108;SDS011;59614;51.012;-1.648;2023-06-05T05:02:42;9.05;;;5.75;;
71108;SDS011;59614;51.012;-1.648;2023-06-05T05:05:08;8.48;;;5.50;;
71108;SDS011;59614;51.012;-1.648;2023-06-05T05:07:38;8.27;;;5.20;;
71108;SDS011;59614;51.012;-1.648;2023-06-05T05:10:04;10.45;;;5.07;;
71108;SDS011;59614;51.012;-1.648;2023-06-05T05:12:30;10.02;;;5.50;;
71108;SDS011;59614;51.012;-1.648;2023-06-05T05:14:55;13.07;;;5.70;;
71108;SDS011;59614;51.012;-1.648;2023-06-05T05:17:21;9.25;;;5.10;;
71108;SDS011;59614;51.012;-1.648;2023-06-05T05:19:47;7.68;;;4.93;;
71108;SDS011;59614;51.012;-1.648;2023-06-05T05:22:12;10.48;;;5.70;;
71108;SDS011;59614;51.012;-1.648;2023-06-05T05:24:38;10.07;;;5.13;;
71108;SDS011;59614;51.012;-1.648;2023-06-05T05:27:03;7.40;;;4.93;;
71108;SDS011;59614;51.012;-1.648;2023-06-05T05:29:29;9.88;;;5.22;;
71108;SDS011;59614;51.012;-1.648;2023-06-05T05:31:54;8.73;;;5.15;;
71108;SDS011;59614;51.012;-1.648;2023-06-05T05:34:20;8.27;;;5.00;;
71108;SDS011;59614;51.012;-1.648;2023-06-05T05:36:46;9.40;;;5.32;;
71108;SDS011;59614;51.012;-1.648;2023-06-05T05:39:11;12.40;;;5.15;;
71108;SDS011;59614;51.012;-1.648;2023-06-05T05:41:37;7.28;;;4.78;;
71108;SDS011;59614;51.012;-1.648;2023-06-05T05:44:02;9.35;;;5.22;;
71108;SDS011;59614;51.012;-1.648;2023-06-05T05:46:27;7.47;;;4.78;;
71108;SDS011;59614;51.012;-1.648;2023-06-05T05:48:53;9.50;;;5.00;;
71108;SDS011;59614;51.012;-1.648;2023-06-05T05:51:19;11.52;;;5.20;;
71108;SDS011;59614;51.012;-1.648;2023-06-05T05:53:46;8.52;;;4.65;;
71108;SDS011;59614;51.012;-1.648;2023-06-05T05:56:11;12.00;;;5.03;;
71108;SDS011;59614;51.012;-1.648;2023-06-05T05:58:37;8.57;;;4.95;;
71108;SDS011;59614;51.012;-1.648;2023-06-05T06:01:02;8.70;;;5.05;;
71108;SDS011;59614;51.012;-1.648;2023-06-05T06:03:27;7.97;;;4.85;;
71108;SDS011;59614;51.012;-1.648;2023-06-05T06:05:53;6.88;;;4.40;;
71108;SDS011;59614;51.012;-1.648;2023-06-05T06:08:19;10.23;;;4.72;;
71108;SDS011;59614;51.012;-1.648;2023-06-05T06:10:45;10.60;;;4.90;;
71108;SDS011;59614;51.012;-1.648;2023-06-05T06:13:11;9.50;;;5.03;;
71108;SDS011;59614;51.012;-1.648;2023-06-05T06:15:36;8.52;;;4.43;;
71108;SDS011;59614;51.012;-1.648;2023-06-05T06:18:03;9.57;;;4.97;;
71108;SDS011;59614;51.012;-1.648;2023-06-05T06:20:32;11.07;;;4.53;;
71108;SDS011;59614;51.012;-1.648;2023-06-05T06:23:01;12.05;;;4.75;;
71108;SDS011;59614;51.012;-1.648;2023-06-05T06:25:28;7.97;;;4.47;;
71108;SDS011;59614;51.012;-1.648;2023-06-05T06:27:56;9.05;;;4.50;;
71108;SDS011;59614;51.012;-1.648;2023-06-05T06:30:23;7.40;;;4.20;;
71108;SDS011;59614;51.012;-1.648;2023-06-05T06:32:49;7.00;;;4.00;;
71108;SDS011;59614;51.012;-1.648;2023-06-05T06:35:15;7.15;;;3.88;;
71108;SDS011;59614;51.012;-1.648;2023-06-05T06:37:41;9.93;;;4.43;;
71108;SDS011;59614;51.012;-1.648;2023-06-05T06:40:07;10.38;;;4.60;;
71108;SDS011;59614;51.012;-1.648;2023-06-05T06:42:36;7.18;;;3.90;;
71108;SDS011;59614;51.012;-1.648;2023-06-05T06:45:03;8.45;;;4.47;;
71108;SDS011;59614;51.012;-1.648;2023-06-05T06:47:29;7.93;;;4.32;;
71108;SDS011;59614;51.012;-1.648;2023-06-05T06:49:55;6.47;;;4.13;;
71108;SDS011;59614;51.012;-1.648;2023-06-05T06:52:21;8.95;;;4.65;;
71108;SDS011;59614;51.012;-1.648;2023-06-05T06:54:47;9.15;;;4.28;;
71108;SDS011;59614;51.012;-1.648;2023-06-05T06:57:13;6.20;;;3.80;;
71108;SDS011;59614;51.012;-1.648;2023-06-05T06:59:38;8.02;;;4.60;;
71108;SDS011;59614;51.012;-1.648;2023-06-05T07:02:09;8.45;;;4.15;;
71108;SDS011;59614;51.012;-1.648;2023-06-05T07:04:45;9.90;;;4.40;;
71108;SDS011;59614;51.012;-1.648;2023-06-05T07:07:12;8.52;;;4.40;;
71108;SDS011;59614;51.012;-1.648;2023-06-05T07:09:42;8.53;;;4.10;;
71108;SDS011;59614;51.012;-1.648;2023-06-05T07:12:12;7.18;;;4.10;;
71108;SDS011;59614;51.012;-1.648;2023-06-05T07:14:39;9.02;;;4.13;;
71108;SDS011;59614;51.012;-1.648;2023-06-05T07:17:05;13.52;;;4.78;;
71108;SDS011;59614;51.012;-1.648;2023-06-05T07:19:31;8.05;;;4.03;;
71108;SDS011;59614;51.012;-1.648;2023-06-05T07:21:58;5.88;;;3.85;;
71108;SDS011;59614;51.012;-1.648;2023-06-05T07:24:24;7.83;;;3.97;;
71108;SDS011;59614;51.012;-1.648;2023-06-05T07:26:53;6.13;;;3.70;;
71108;SDS011;59614;51.012;-1.648;2023-06-05T07:29:20;5.10;;;3.55;;
71108;SDS011;59614;51.012;-1.648;2023-06-05T07:31:47;8.70;;;3.90;;
71108;SDS011;59614;51.012;-1.648;2023-06-05T07:34:13;8.48;;;3.83;;
71108;SDS011;59614;51.012;-1.648;2023-06-05T07:36:40;7.45;;;3.47;;
71108;SDS011;59614;51.012;-1.648;2023-06-05T07:39:05;10.07;;;3.50;;
71108;SDS011;59614;51.012;-1.648;2023-06-05T07:41:31;6.93;;;3.50;;
71108;SDS011;59614;51.012;-1.648;2023-06-05T07:43:57;6.68;;;3.88;;
71108;SDS011;59614;51.012;-1.648;2023-06-05T07:46:22;5.07;;;3.45;;
71108;SDS011;59614;51.012;-1.648;2023-06-05T07:48:47;6.20;;;3.50;;
71108;SDS011;59614;51.012;-1.648;2023-06-05T07:51:13;6.38;;;3.25;;
71108;SDS011;59614;51.012;-1.648;2023-06-05T07:53:38;7.72;;;3.20;;
71108;SDS011;59614;51.012;-1.648;2023-06-05T07:56:05;6.85;;;3.63;;
71108;SDS011;59614;51.012;-1.648;2023-06-05T07:58:30;7.72;;;3.78;;
71108;SDS011;59614;51.012;-1.648;2023-06-05T08:00:57;5.38;;;3.22;;
71108;SDS011;59614;51.012;-1.648;2023-06-05T08:03:23;8.32;;;4.00;;
71108;SDS011;59614;51.012;-1.648;2023-06-05T08:05:49;10.93;;;3.65;;
71108;SDS011;59614;51.012;-1.648;2023-06-05T08:08:15;5.63;;;3.35;;
71108;SDS011;59614;51.012;-1.648;2023-06-05T08:10:41;7.85;;;3.50;;
71108;SDS011;59614;51.012;-1.648;2023-06-05T08:13:07;9.38;;;3.40;;
71108;SDS011;59614;51.012;-1.648;2023-06-05T08:15:33;6.57;;;3.65;;
71108;SDS011;59614;51.012;-1.648;2023-06-05T08:17:58;8.75;;;3.58;;
71108;SDS011;59614;51.012;-1.648;2023-06-05T08:20:24;8.82;;;3.60;;
71108;SDS011;59614;51.012;-1.648;2023-06-05T08:22:49;5.57;;;3.17;;
71108;SDS011;59614;51.012;-1.648;2023-06-05T08:25:15;6.85;;;3.38;;
71108;SDS011;59614;51.012;-1.648;2023-06-05T08:27:40;7.70;;;3.63;;
71108;SDS011;59614;51.012;-1.648;2023-06-05T08:30:06;6.30;;;3.40;;
71108;SDS011;59614;51.012;-1.648;2023-06-05T08:32:32;6.93;;;3.42;;
71108;SDS011;59614;51.012;-1.648;2023-06-05T08:34:58;5.53;;;3.05;;
71108;SDS011;59614;51.012;-1.648;2023-06-05T08:37:23;8.05;;;3.78;;
71108;SDS011;59614;51.012;-1.648;2023-06-05T08:39:49;5.85;;;3.47;;
71108;SDS011;59614;51.012;-1.648;2023-06-05T08:42:15;6.38;;;3.40;;
71108;SDS011;59614;51.012;-1.648;2023-06-05T08:44:43;6.15;;;3.70;;
71108;SDS011;59614;51.012;-1.648;2023-06-05T08:47:12;7.75;;;3.58;;
71108;SDS011;59614;51.012;-1.648;2023-06-05T08:49:40;9.60;;;3.63;;
71108;SDS011;59614;51.012;-1.648;2023-06-05T08:52:07;7.73;;;3.80;;
71108;SDS011;59614;51.012;-1.648;2023-06-05T08:54:42;8.27;;;3.80;;
71108;SDS011;59614;51.012;-1.648;2023-06-05T08:57:08;7.25;;;3.70;;
71108;SDS011;59614;51.012;-1.648;2023-06-05T08:59:34;7.35;;;3.85;;
71108;SDS011;59614;51.012;-1.648;2023-06-05T09:02:00;5.65;;;3.17;;
71108;SDS011;59614;51.012;-1.648;2023-06-05T09:04:25;8.55;;;3.58;;
71108;SDS011;59614;51.012;-1.648;2023-06-05T09:06:55;7.65;;;3.40;;
71108;SDS011;59614;51.012;-1.648;2023-06-05T09:09:24;8.23;;;3.53;;
71108;SDS011;59614;51.012;-1.648;2023-06-05T09:12:06;7.55;;;3.20;;
71108;SDS011;59614;51.012;-1.648;2023-06-05T09:14:33;5.97;;;3.55;;
71108;SDS011;59614;51.012;-1.648;2023-06-05T09:17:00;5.80;;;3.45;;
71108;SDS011;59614;51.012;-1.648;2023-06-05T09:19:36;7.75;;;3.38;;
71108;SDS011;59614;51.012;-1.648;2023-06-05T09:22:03;7.03;;;3.60;;
71108;SDS011;59614;51.012;-1.648;2023-06-05T09:24:30;7.30;;;3.22;;
71108;SDS011;59614;51.012;-1.648;2023-06-05T09:26:57;7.30;;;3.38;;
71108;SDS011;59614;51.012;-1.648;2023-06-05T09:34:31;11.13;;;3.80;;
71108;SDS011;59614;51.012;-1.648;2023-06-05T09:37:03;6.18;;;3.05;;
71108;SDS011;59614;51.012;-1.648;2023-06-05T09:39:31;8.10;;;3.30;;
71108;SDS011;59614;51.012;-1.648;2023-06-05T09:41:58;7.20;;;3.10;;
71108;SDS011;59614;51.012;-1.648;2023-06-05T09:44:25;8.25;;;3.50;;
71108;SDS011;59614;51.012;-1.648;2023-06-05T09:49:18;6.43;;;3.65;;
71108;SDS011;59614;51.012;-1.648;2023-06-05T09:51:44;6.03;;;3.60;;
71108;SDS011;59614;51.012;-1.648;2023-06-05T09:54:11;6.78;;;3.90;;
71108;SDS011;59614;51.012;-1.648;2023-06-05T09:56:37;7.85;;;3.60;;
71108;SDS011;59614;51.012;-1.648;2023-06-05T09:59:12;8.07;;;4.15;;
71108;SDS011;59614;51.012;-1.648;2023-06-05T10:01:41;16.75;;;3.70;;
71108;SDS011;59614;51.012;-1.648;2023-06-05T10:04:09;6.65;;;3.58;;
71108;SDS011;59614;51.012;-1.648;2023-06-05T10:06:36;7.05;;;3.55;;
71108;SDS011;59614;51.012;-1.648;2023-06-05T10:09:02;13.18;;;3.72;;
71108;SDS011;59614;51.012;-1.648;2023-06-05T10:11:28;8.32;;;3.70;;
71108;SDS011;59614;51.012;-1.648;2023-06-05T10:13:54;15.60;;;4.30;;
71108;SDS011;59614;51.012;-1.648;2023-06-05T10:16:25;10.00;;;3.63;;
71108;SDS011;59614;51.012;-1.648;2023-06-05T10:18:51;8.02;;;3.55;;
71108;SDS011;59614;51.012;-1.648;2023-06-05T10:21:17;6.80;;;3.42;;
71108;SDS011;59614;51.012;-1.648;2023-06-05T10:23:46;6.80;;;3.63;;
71108;SDS011;59614;51.012;-1.648;2023-06-05T10:40:30;10.57;;;4.00;;
71108;SDS011;59614;51.012;-1.648;2023-06-05T10:43:23;7.18;;;3.75;;
71108;SDS011;59614;51.012;-1.648;2023-06-05T10:45:52;7.13;;;3.42;;
71108;SDS011;59614;51.012;-1.648;2023-06-05T10:48:18;7.72;;;3.70;;
71108;SDS011;59614;51.012;-1.648;2023-06-05T10:50:43;7.55;;;3.65;;
71108;SDS011;59614;51.012;-1.648;2023-06-05T10:56:07;8.07;;;3.88;;
71108;SDS011;59614;51.012;-1.648;2023-06-05T10:58:32;11.75;;;4.35;;
71108;SDS011;59614;51.012;-1.648;2023-06-05T11:06:21;10.00;;;3.92;;
71108;SDS011;59614;51.012;-1.648;2023-06-05T11:14:44;11.10;;;4.40;;
71108;SDS011;59614;51.012;-1.648;2023-06-05T11:17:25;7.97;;;4.30;;
71108;SDS011;59614;51.012;-1.648;2023-06-05T11:19:58;8.73;;;4.20;;
71108;SDS011;59614;51.012;-1.648;2023-06-05T11:22:23;8.75;;;4.13;;
71108;SDS011;59614;51.012;-1.648;2023-06-05T11:30:10;7.13;;;4.30;;
71108;SDS011;59614;51.012;-1.648;2023-06-05T11:32:37;7.70;;;3.90;;
71108;SDS011;59614;51.012;-1.648;2023-06-05T11:35:02;7.50;;;3.85;;
71108;SDS011;59614;51.012;-1.648;2023-06-05T11:37:29;11.80;;;4.20;;
71108;SDS011;59614;51.012;-1.648;2023-06-05T11:39:58;8.90;;;3.90;;
71108;SDS011;59614;51.012;-1.648;2023-06-05T11:42:23;9.32;;;3.85;;
71108;SDS011;59614;51.012;-1.648;2023-06-05T11:44:49;7.72;;;4.00;;
71108;SDS011;59614;51.012;-1.648;2023-06-05T11:47:24;9.00;;;3.97;;
71108;SDS011;59614;51.012;-1.648;2023-06-05T11:49:53;6.50;;;4.07;;
71108;SDS011;59614;51.012;-1.648;2023-06-05T11:52:18;7.82;;;3.88;;
71108;SDS011;59614;51.012;-1.648;2023-06-05T11:54:46;7.10;;;3.95;;
71108;SDS011;59614;51.012;-1.648;2023-06-05T11:57:18;8.82;;;3.72;;
71108;SDS011;59614;51.012;-1.648;2023-06-05T11:59:51;7.63;;;4.13;;
71108;SDS011;59614;51.012;-1.648;2023-06-05T12:02:20;10.60;;;4.30;;
71108;SDS011;59614;51.012;-1.648;2023-06-05T12:04:47;8.60;;;4.20;;
71108;SDS011;59614;51.012;-1.648;2023-06-05T12:07:13;6.55;;;3.58;;
71108;SDS011;59614;51.012;-1.648;2023-06-05T12:09:38;5.78;;;3.60;;
71108;SDS011;59614;51.012;-1.648;2023-06-05T12:12:06;6.70;;;3.53;;
71108;SDS011;59614;51.012;-1.648;2023-06-05T12:14:33;7.93;;;3.90;;
71108;SDS011;59614;51.012;-1.648;2023-06-05T12:16:59;7.78;;;4.15;;
71108;SDS011;59614;51.012;-1.648;2023-06-05T12:19:25;8.98;;;4.43;;
71108;SDS011;59614;51.012;-1.648;2023-06-05T12:21:50;6.43;;;3.90;;
71108;SDS011;59614;51.012;-1.648;2023-06-05T12:24:27;7.47;;;4.03;;
71108;SDS011;59614;51.012;-1.648;2023-06-05T12:26:56;11.93;;;4.13;;
71108;SDS011;59614;51.012;-1.648;2023-06-05T12:29:24;8.57;;;4.13;;
71108;SDS011;59614;51.012;-1.648;2023-06-05T12:31:53;7.15;;;3.60;;
71108;SDS011;59614;51.012;-1.648;2023-06-05T12:34:35;7.90;;;4.15;;
71108;SDS011;59614;51.012;-1.648;2023-06-05T12:37:06;7.75;;;3.80;;
71108;SDS011;59614;51.012;-1.648;2023-06-05T12:39:33;11.20;;;4.03;;
71108;SDS011;59614;51.012;-1.648;2023-06-05T12:41:58;4.97;;;3.40;;
71108;SDS011;59614;51.012;-1.648;2023-06-05T12:44:24;7.28;;;3.60;;
71108;SDS011;59614;51.012;-1.648;2023-06-05T12:46:49;7.20;;;3.88;;
71108;SDS011;59614;51.012;-1.648;2023-06-05T12:49:15;10.50;;;3.83;;
71108;SDS011;59614;51.012;-1.648;2023-06-05T12:51:40;6.85;;;3.55;;
71108;SDS011;59614;51.012;-1.648;2023-06-05T12:54:06;6.95;;;4.05;;
71108;SDS011;59614;51.012;-1.648;2023-06-05T12:56:31;6.07;;;3.67;;
71108;SDS011;59614;51.012;-1.648;2023-06-05T12:58:59;7.20;;;3.60;;
71108;SDS011;59614;51.012;-1.648;2023-06-05T13:01:25;11.57;;;3.92;;
71108;SDS011;59614;51.012;-1.648;2023-06-05T13:03:51;8.77;;;3.67;;
71108;SDS011;59614;51.012;-1.648;2023-06-05T13:06:17;9.45;;;3.92;;
71108;SDS011;59614;51.012;-1.648;2023-06-05T13:08:44;8.98;;;3.50;;
71108;SDS011;59614;51.012;-1.648;2023-06-05T13:11:11;4.90;;;3.72;;
71108;SDS011;59614;51.012;-1.648;2023-06-05T13:13:37;6.93;;;3.80;;
71108;SDS011;59614;51.012;-1.648;2023-06-05T13:16:02;7.32;;;3.95;;
71108;SDS011;59614;51.012;-1.648;2023-06-05T13:18:30;7.72;;;3.70;;
71108;SDS011;59614;51.012;-1.648;2023-06-05T13:20:56;9.85;;;4.30;;
71108;SDS011;59614;51.012;-1.648;2023-06-05T13:23:21;7.97;;;3.90;;
71108;SDS011;59614;51.012;-1.648;2023-06-05T13:25:47;7.57;;;3.97;;
71108;SDS011;59614;51.012;-1.648;2023-06-05T13:28:12;7.07;;;3.78;;
71108;SDS011;59614;51.012;-1.648;2023-06-05T13:30:37;7.70;;;3.40;;
71108;SDS011;59614;51.012;-1.648;2023-06-05T13:33:03;5.63;;;3.65;;
71108;SDS011;59614;51.012;-1.648;2023-06-05T13:35:28;5.93;;;3.95;;
71108;SDS011;59614;51.012;-1.648;2023-06-05T13:37:54;5.65;;;3.88;;
71108;SDS011;59614;51.012;-1.648;2023-06-05T13:40:19;6.65;;;3.85;;
71108;SDS011;59614;51.012;-1.648;2023-06-05T13:42:44;5.32;;;3.25;;
71108;SDS011;59614;51.012;-1.648;2023-06-05T13:45:10;6.57;;;3.25;;
71108;SDS011;59614;51.012;-1.648;2023-06-05T13:47:36;6.72;;;3.72;;
71108;SDS011;59614;51.012;-1.648;2023-06-05T13:50:02;6.68;;;3.90;;
71108;SDS011;59614;51.012;-1.648;2023-06-05T13:52:28;5.97;;;3.72;;
71108;SDS011;59614;51.012;-1.648;2023-06-05T13:54:54;6.18;;;3.60;;
71108;SDS011;59614;51.012;-1.648;2023-06-05T13:57:19;5.53;;;3.40;;
71108;SDS011;59614;51.012;-1.648;2023-06-05T13:59:45;5.47;;;3.10;;
71108;SDS011;59614;51.012;-1.648;2023-06-05T14:02:11;7.15;;;4.00;;
71108;SDS011;59614;51.012;-1.648;2023-06-05T14:04:37;6.72;;;3.35;;
71108;SDS011;59614;51.012;-1.648;2023-06-05T14:07:02;6.82;;;3.78;;
71108;SDS011;59614;51.012;-1.648;2023-06-05T14:09:28;6.05;;;3.70;;
71108;SDS011;59614;51.012;-1.648;2023-06-05T14:11:54;6.35;;;3.45;;
71108;SDS011;59614;51.012;-1.648;2023-06-05T14:14:21;7.15;;;3.50;;
71108;SDS011;59614;51.012;-1.648;2023-06-05T14:16:48;6.38;;;3.65;;
71108;SDS011;59614;51.012;-1.648;2023-06-05T14:19:13;7.60;;;3.38;;
71108;SDS011;59614;51.012;-1.648;2023-06-05T14:21:38;6.50;;;3.50;;
71108;SDS011;59614;51.012;-1.648;2023-06-05T14:24:05;7.72;;;3.53;;
71108;SDS011;59614;51.012;-1.648;2023-06-05T14:26:31;6.00;;;3.10;;
71108;SDS011;59614;51.012;-1.648;2023-06-05T14:28:56;7.03;;;3.72;;
71108;SDS011;59614;51.012;-1.648;2023-06-05T14:31:21;7.35;;;3.53;;
71108;SDS011;59614;51.012;-1.648;2023-06-05T14:33:50;8.85;;;3.70;;
71108;SDS011;59614;51.012;-1.648;2023-06-05T14:36:16;5.35;;;3.45;;
71108;SDS011;59614;51.012;-1.648;2023-06-05T14:38:41;7.05;;;3.20;;
71108;SDS011;59614;51.012;-1.648;2023-06-05T14:41:07;6.70;;;3.00;;
71108;SDS011;59614;51.012;-1.648;2023-06-05T14:43:32;8.13;;;2.90;;
71108;SDS011;59614;51.012;-1.648;2023-06-05T14:45:58;5.65;;;3.42;;
71108;SDS011;59614;51.012;-1.648;2023-06-05T14:48:25;8.23;;;3.22;;
71108;SDS011;59614;51.012;-1.648;2023-06-05T14:50:50;6.00;;;3.33;;
71108;SDS011;59614;51.012;-1.648;2023-06-05T14:53:17;8.68;;;3.45;;
71108;SDS011;59614;51.012;-1.648;2023-06-05T14:55:43;5.60;;;3.30;;
71108;SDS011;59614;51.012;-1.648;2023-06-05T14:58:09;5.95;;;3.33;;
71108;SDS011;59614;51.012;-1.648;2023-06-05T15:00:35;5.45;;;3.05;;
71108;SDS011;59614;51.012;-1.648;2023-06-05T15:03:01;5.82;;;3.17;;
71108;SDS011;59614;51.012;-1.648;2023-06-05T15:05:26;6.00;;;3.20;;
71108;SDS011;59614;51.012;-1.648;2023-06-05T15:07:52;5.60;;;3.30;;
71108;SDS011;59614;51.012;-1.648;2023-06-05T15:10:17;5.43;;;2.80;;
71108;SDS011;59614;51.012;-1.648;2023-06-05T15:12:43;6.57;;;3.13;;
71108;SDS011;59614;51.012;-1.648;2023-06-05T15:15:09;9.52;;;3.22;;
71108;SDS011;59614;51.012;-1.648;2023-06-05T15:17:34;4.20;;;2.92;;
71108;SDS011;59614;51.012;-1.648;2023-06-05T15:20:00;7.65;;;3.20;;